Black Creek, North Carolina
Current Conditions -  °F | °C
As of 8:35 PM on Wednesday 26 Nov 2014 (Local Time) from KGWW Reporting Station
Overcast Overcast  
Wind Chill: 41°   Ceiling: 5000
Heat Index: 41°   Visibility: 10mi
Dew Point: 38°   Wind: 3mph
Humidity: 90%   Direction: 300°WNW
Pressure: 30.09"   Gusts: NA
Location:  35.64°N, 77.93°W
Report Text: KGWW 270135Z AUTO 30003KT 10SM SCT019 OVC050 05/04 A3009 RMK AO2 P0001 T00510036
Loading
Personal Weather Stations






























Interactive Weather Map New forecast layout! Learn more

10-Day Weather Forecast

Advertisements
Track Severe Weather on mobile